Time;durP1;ratioP1;P1;durP2;ratioP2;P2;SDS_P1;SDS_P2;PMS_P1;PMS_P2;Temp;Humidity;BMP_temperature;BMP_pressure;BME280_temperature;BME280_humidity;BME280_pressure;Samples;Min_cycle;Max_cycle;Signal;HPM_P1;HPM_P2
2021/12/29 00:00:27;;;;;;;;;8.00;5.33;;;;;;;;5049580;28;45962;-65
2021/12/29 00:02:53;;;;;;;;;10.33;4.67;;;;;;;;5040967;28;45474;-65
2021/12/29 00:05:18;;;;;;;;;11.50;6.50;;;;;;;;5025668;28;45506;-66
2021/12/29 00:07:43;;;;;;;;;4.33;2.33;;;;;;;;5049579;28;46497;-65
2021/12/29 00:10:09;;;;;;;;;6.75;4.00;;;;;;;;5050284;28;45429;-66
2021/12/29 00:12:41;;;;;;;;;6.25;2.00;;;;;;;;5052533;28;45365;-67
2021/12/29 00:15:10;;;;;;;;;4.50;3.50;;;;;;;;5032978;28;45719;-65
2021/12/29 00:17:35;;;;;;;;;8.00;5.33;;;;;;;;5050564;28;46144;-66
2021/12/29 00:20:01;;;;;;;;;5.00;4.00;;;;;;;;5047784;28;45578;-66
2021/12/29 00:22:26;;;;;;;;;6.50;4.25;;;;;;;;5029530;28;45866;-66
2021/12/29 00:24:51;;;;;;;;;4.00;3.00;;;;;;;;5042841;28;47385;-65
2021/12/29 00:27:16;;;;;;;;;7.25;5.25;;;;;;;;5029268;28;46699;-66
2021/12/29 00:29:41;;;;;;;;;13.25;5.50;;;;;;;;5046252;28;46199;-65
2021/12/29 00:32:07;;;;;;;;;4.33;3.67;;;;;;;;5043754;28;45370;-66
2021/12/29 00:34:32;;;;;;;;;5.25;4.00;;;;;;;;5031725;28;45470;-65
2021/12/29 00:36:57;;;;;;;;;5.33;4.33;;;;;;;;5034165;28;46343;-66
2021/12/29 00:39:23;;;;;;;;;6.50;4.25;;;;;;;;5051094;28;45412;-65
2021/12/29 00:41:48;;;;;;;;;14.33;5.33;;;;;;;;5050056;28;45413;-65
2021/12/29 00:44:13;;;;;;;;;6.00;3.33;;;;;;;;5033696;28;46057;-65
2021/12/29 00:46:39;;;;;;;;;4.75;4.00;;;;;;;;5043662;28;45639;-66
2021/12/29 00:49:04;;;;;;;;;5.00;4.00;;;;;;;;5050339;28;45552;-65
2021/12/29 00:51:29;;;;;;;;;8.50;4.25;;;;;;;;5051590;28;45641;-65
2021/12/29 00:53:55;;;;;;;;;8.00;4.00;;;;;;;;5049315;28;45755;-68
2021/12/29 00:56:20;;;;;;;;;4.50;4.25;;;;;;;;5049119;28;45934;-66
2021/12/29 00:58:45;;;;;;;;;7.00;5.33;;;;;;;;5031609;28;45375;-66
2021/12/29 01:01:11;;;;;;;;;6.75;4.25;;;;;;;;5032758;28;45551;-65
2021/12/29 01:03:38;;;;;;;;;8.75;5.75;;;;;;;;5050810;28;45625;-66
2021/12/29 01:06:03;;;;;;;;;5.25;4.00;;;;;;;;5048417;28;46425;-66
2021/12/29 01:08:30;;;;;;;;;4.25;2.50;;;;;;;;5032231;28;45559;-65
2021/12/29 01:10:55;;;;;;;;;9.25;4.50;;;;;;;;5044959;28;45632;-65
2021/12/29 01:13:29;;;;;;;;;4.00;3.00;;;;;;;;5042555;28;45394;-64
2021/12/29 01:18:32;;;;;;;;;5.25;4.50;;;;;;;;5050607;28;45528;-66
2021/12/29 01:20:58;;;;;;;;;6.00;3.50;;;;;;;;5048345;28;45315;-66
2021/12/29 01:23:23;;;;;;;;;6.00;5.00;;;;;;;;5048135;28;45401;-65
2021/12/29 01:25:48;;;;;;;;;6.00;4.00;;;;;;;;5041013;28;46287;-65
2021/12/29 01:28:14;;;;;;;;;8.00;5.75;;;;;;;;5049486;28;45481;-65
2021/12/29 01:30:39;;;;;;;;;6.25;4.00;;;;;;;;5044837;28;45370;-66
2021/12/29 01:33:06;;;;;;;;;7.75;6.25;;;;;;;;5041474;28;46150;-66
2021/12/29 01:35:32;;;;;;;;;6.75;5.50;;;;;;;;5023270;28;47785;-65
2021/12/29 01:37:57;;;;;;;;;10.50;3.75;;;;;;;;5047244;28;45328;-66
2021/12/29 01:40:22;;;;;;;;;7.00;5.00;;;;;;;;5048920;28;45393;-65
2021/12/29 01:42:47;;;;;;;;;7.00;7.00;;;;;;;;5042361;28;45338;-65
2021/12/29 01:45:13;;;;;;;;;10.25;7.75;;;;;;;;5050210;28;45588;-64
2021/12/29 01:47:38;;;;;;;;;6.00;5.75;;;;;;;;5044839;28;45984;-64
2021/12/29 01:50:04;;;;;;;;;5.50;4.25;;;;;;;;5042853;28;45973;-65
2021/12/29 01:52:36;;;;;;;;;5.50;4.25;;;;;;;;5036248;28;45708;-64
2021/12/29 01:55:02;;;;;;;;;10.00;5.00;;;;;;;;5054090;28;45376;-66
2021/12/29 01:57:27;;;;;;;;;8.75;6.50;;;;;;;;5049239;28;45472;-65
2021/12/29 01:59:52;;;;;;;;;5.00;4.00;;;;;;;;5036314;28;45495;-65
2021/12/29 02:02:19;;;;;;;;;3.25;3.25;;;;;;;;5048673;28;45492;-64
2021/12/29 02:04:45;;;;;;;;;6.00;5.25;;;;;;;;5055078;28;45715;-64
2021/12/29 02:07:10;;;;;;;;;4.67;2.00;;;;;;;;5054738;28;45465;-65
2021/12/29 02:09:36;;;;;;;;;8.50;5.75;;;;;;;;5056106;28;45481;-65
2021/12/29 02:12:01;;;;;;;;;8.50;7.00;;;;;;;;5036721;28;45535;-65
2021/12/29 02:14:26;;;;;;;;;7.00;6.00;;;;;;;;5054875;28;46483;-65
2021/12/29 02:16:52;;;;;;;;;5.25;5.25;;;;;;;;5047303;28;45505;-65
2021/12/29 02:19:17;;;;;;;;;6.00;4.00;;;;;;;;5044143;28;45504;-65
2021/12/29 02:21:50;;;;;;;;;7.00;6.00;;;;;;;;5055682;28;45519;-65
2021/12/29 02:24:19;;;;;;;;;10.00;5.00;;;;;;;;5055239;28;46673;-65
2021/12/29 02:26:46;;;;;;;;;10.25;4.25;;;;;;;;5032799;28;46070;-64
2021/12/29 02:29:12;;;;;;;;;16.75;7.75;;;;;;;;5052739;28;45627;-64
2021/12/29 02:31:38;;;;;;;;;7.00;6.75;;;;;;;;5054934;28;45505;-65
2021/12/29 02:34:04;;;;;;;;;6.50;4.75;;;;;;;;5054358;28;45515;-64
2021/12/29 02:36:30;;;;;;;;;5.25;4.50;;;;;;;;5037605;28;45360;-66
2021/12/29 02:38:56;;;;;;;;;10.75;6.50;;;;;;;;5035650;28;45513;-65
2021/12/29 02:41:23;;;;;;;;;10.50;5.25;;;;;;;;5035761;28;45414;-65
2021/12/29 02:43:57;;;;;;;;;5.75;3.00;;;;;;;;5036588;28;47606;-65
2021/12/29 02:46:22;;;;;;;;;7.00;3.33;;;;;;;;5054389;28;45508;-65
2021/12/29 02:48:56;;;;;;;;;9.33;5.00;;;;;;;;5055247;28;45418;-65
2021/12/29 02:51:22;;;;;;;;;11.00;7.50;;;;;;;;5053380;28;45517;-65
2021/12/29 02:53:47;;;;;;;;;7.25;5.00;;;;;;;;5035684;28;46766;-64
2021/12/29 02:56:13;;;;;;;;;6.50;4.00;;;;;;;;5053471;28;45520;-65
2021/12/29 02:58:38;;;;;;;;;3.50;3.50;;;;;;;;5053610;28;45349;-65
2021/12/29 03:01:06;;;;;;;;;4.00;1.00;;;;;;;;5052374;28;45936;-66
2021/12/29 03:03:33;;;;;;;;;13.50;5.25;;;;;;;;5036589;28;46892;-65
2021/12/29 03:05:58;;;;;;;;;7.75;5.50;;;;;;;;5035679;28;46253;-64
2021/12/29 03:08:23;;;;;;;;;5.50;3.75;;;;;;;;5053794;28;45362;-65
2021/12/29 03:10:52;;;;;;;;;6.50;4.75;;;;;;;;5053818;28;45300;-64
2021/12/29 03:13:18;;;;;;;;;4.67;3.00;;;;;;;;5036244;28;46552;-64
2021/12/29 03:15:43;;;;;;;;;9.50;2.00;;;;;;;;5054572;28;45432;-65
2021/12/29 03:18:08;;;;;;;;;13.00;5.00;;;;;;;;5054036;28;45433;-64
2021/12/29 03:20:34;;;;;;;;;6.25;5.25;;;;;;;;5069262;27;45513;-65
2021/12/29 03:22:59;;;;;;;;;6.33;3.67;;;;;;;;5053068;28;45978;-64
2021/12/29 03:25:25;;;;;;;;;6.00;3.25;;;;;;;;5052564;28;46091;-66
2021/12/29 03:27:51;;;;;;;;;4.33;2.33;;;;;;;;5053453;28;45444;-64
2021/12/29 03:30:16;;;;;;;;;5.50;4.00;;;;;;;;5053757;28;45350;-64
2021/12/29 03:32:49;;;;;;;;;4.00;3.00;;;;;;;;5053515;28;45685;-64
2021/12/29 03:35:14;;;;;;;;;6.33;3.00;;;;;;;;5035264;28;45562;-64
2021/12/29 03:37:40;;;;;;;;;4.75;3.50;;;;;;;;5052140;28;45405;-65
2021/12/29 03:40:05;;;;;;;;;5.25;4.00;;;;;;;;5052359;28;45283;-64
2021/12/29 03:42:30;;;;;;;;;5.00;4.00;;;;;;;;5051647;28;46563;-65
2021/12/29 03:44:56;;;;;;;;;6.33;3.67;;;;;;;;5050807;28;45823;-65
2021/12/29 03:47:21;;;;;;;;;2.00;2.00;;;;;;;;5034674;28;45873;-64
2021/12/29 03:49:46;;;;;;;;;8.33;3.00;;;;;;;;5052786;28;45539;-64
2021/12/29 03:52:11;;;;;;;;;6.50;5.00;;;;;;;;5051567;28;45668;-64
2021/12/29 03:54:37;;;;;;;;;8.33;5.33;;;;;;;;5034835;28;45382;-65
2021/12/29 03:57:02;;;;;;;;;4.67;3.00;;;;;;;;5052823;28;45310;-65
2021/12/29 03:59:28;;;;;;;;;5.25;2.75;;;;;;;;5068410;28;45509;-63
2021/12/29 04:01:54;;;;;;;;;8.50;5.25;;;;;;;;5050012;28;45759;-65
2021/12/29 04:04:19;;;;;;;;;4.00;2.00;;;;;;;;5050781;28;45514;-64
2021/12/29 04:06:44;;;;;;;;;5.50;4.00;;;;;;;;5053986;28;45373;-64
2021/12/29 04:09:09;;;;;;;;;5.00;3.00;;;;;;;;5053262;28;45583;-64
2021/12/29 04:11:35;;;;;;;;;3.00;2.00;;;;;;;;5052724;28;45558;-64
2021/12/29 04:14:00;;;;;;;;;6.00;3.00;;;;;;;;5053135;28;45329;-65
2021/12/29 04:16:25;;;;;;;;;4.00;3.50;;;;;;;;5053487;28;45411;-64
2021/12/29 04:19:07;;;;;;;;;1.67;1.67;;;;;;;;5053333;28;45404;-65
2021/12/29 04:21:36;;;;;;;;;4.00;4.00;;;;;;;;5034661;28;47910;-64
2021/12/29 04:24:01;;;;;;;;;2.67;2.67;;;;;;;;5051828;28;45338;-64
2021/12/29 04:26:26;;;;;;;;;3.67;3.67;;;;;;;;5052291;28;45981;-65
2021/12/29 04:28:52;;;;;;;;;5.00;2.00;;;;;;;;5053209;28;45546;-64
2021/12/29 04:31:17;;;;;;;;;4.33;3.00;;;;;;;;5051409;28;45684;-65
2021/12/29 04:33:42;;;;;;;;;3.00;3.00;;;;;;;;5052751;28;45584;-64
2021/12/29 04:36:08;;;;;;;;;3.67;2.00;;;;;;;;5052170;28;45601;-65
2021/12/29 04:38:34;;;;;;;;;3.00;2.00;;;;;;;;5052870;28;45525;-65
2021/12/29 04:40:59;;;;;;;;;2.67;2.00;;;;;;;;5048454;28;46548;-65
2021/12/29 04:43:25;;;;;;;;;2.00;2.00;;;;;;;;5043365;28;46010;-66
2021/12/29 04:45:50;;;;;;;;;1.33;1.33;;;;;;;;5032549;28;45510;-66
2021/12/29 04:48:16;;;;;;;;;3.00;2.00;;;;;;;;5051837;28;45445;-64
2021/12/29 04:50:49;;;;;;;;;2.00;2.00;;;;;;;;5033289;28;48577;-65
2021/12/29 04:53:14;;;;;;;;;2.67;1.00;;;;;;;;5052237;28;45418;-65
2021/12/29 04:55:45;;;;;;;;;2.67;2.67;;;;;;;;5052402;28;45517;-66
2021/12/29 04:58:10;;;;;;;;;2.33;1.00;;;;;;;;5053032;28;45144;-65
2021/12/29 05:00:35;;;;;;;;;1.00;1.00;;;;;;;;5034750;28;48527;-65
2021/12/29 05:03:01;;;;;;;;;1.00;1.00;;;;;;;;5033876;28;46391;-66
2021/12/29 05:10:42;;;;;;;;;0.33;0.33;;;;;;;;5052093;28;45542;-66
2021/12/29 05:13:07;;;;;;;;;1.33;1.33;;;;;;;;5053032;28;45386;-66
2021/12/29 05:15:32;;;;;;;;;2.00;2.00;;;;;;;;5056625;28;45360;-66
2021/12/29 05:17:59;;;;;;;;;1.00;0.00;;;;;;;;5055879;28;45492;-66
2021/12/29 05:20:25;;;;;;;;;1.33;1.00;;;;;;;;5055764;28;46282;-66
2021/12/29 05:22:50;;;;;;;;;1.00;1.00;;;;;;;;5055791;28;45510;-66
2021/12/29 05:25:15;;;;;;;;;1.00;1.00;;;;;;;;5056114;28;45556;-66
2021/12/29 05:27:41;;;;;;;;;3.33;1.33;;;;;;;;5038364;28;45406;-66
2021/12/29 05:30:06;;;;;;;;;2.00;1.00;;;;;;;;5037120;28;47278;-66
2021/12/29 05:32:32;;;;;;;;;1.67;1.67;;;;;;;;5053798;28;45629;-65
2021/12/29 05:34:58;;;;;;;;;2.33;1.00;;;;;;;;5037432;28;45421;-64
2021/12/29 05:37:23;;;;;;;;;1.00;1.00;;;;;;;;5037847;28;45496;-65
2021/12/29 05:39:48;;;;;;;;;0.00;0.00;;;;;;;;5055910;28;45789;-65
2021/12/29 05:42:14;;;;;;;;;2.50;2.00;;;;;;;;5037766;28;45385;-66
2021/12/29 05:44:39;;;;;;;;;3.00;2.00;;;;;;;;5055764;28;45347;-67
2021/12/29 05:47:04;;;;;;;;;2.33;1.67;;;;;;;;5037440;28;45492;-66
2021/12/29 05:49:29;;;;;;;;;1.00;1.00;;;;;;;;5055468;28;46930;-66
2021/12/29 05:51:55;;;;;;;;;2.33;1.00;;;;;;;;5054980;28;45763;-65
2021/12/29 05:54:20;;;;;;;;;1.33;1.33;;;;;;;;5055649;28;45401;-65
2021/12/29 05:56:45;;;;;;;;;2.25;1.00;;;;;;;;5055541;28;45524;-65
2021/12/29 05:59:10;;;;;;;;;2.00;1.00;;;;;;;;5055312;28;46554;-66
2021/12/29 06:01:36;;;;;;;;;4.00;2.00;;;;;;;;5055358;28;45464;-67
2021/12/29 06:04:01;;;;;;;;;0.00;0.00;;;;;;;;5037645;28;45646;-67
2021/12/29 06:06:26;;;;;;;;;2.33;1.00;;;;;;;;5055912;28;45361;-66
2021/12/29 06:08:51;;;;;;;;;2.67;2.00;;;;;;;;5055222;28;45651;-67
2021/12/29 06:11:17;;;;;;;;;2.00;2.00;;;;;;;;5055095;28;45424;-65
2021/12/29 06:13:42;;;;;;;;;1.25;1.00;;;;;;;;5037367;28;45497;-65
2021/12/29 06:16:07;;;;;;;;;3.00;3.00;;;;;;;;5055600;28;45512;-66
2021/12/29 06:18:32;;;;;;;;;4.00;3.00;;;;;;;;5055906;28;45647;-65
2021/12/29 06:20:57;;;;;;;;;4.50;4.00;;;;;;;;5055038;28;45327;-64
2021/12/29 06:23:23;;;;;;;;;6.00;4.00;;;;;;;;5054947;28;45518;-68
2021/12/29 06:25:49;;;;;;;;;5.50;5.00;;;;;;;;5054306;28;45342;-68
2021/12/29 06:28:15;;;;;;;;;4.00;4.00;;;;;;;;5038999;28;46525;-68
2021/12/29 06:30:40;;;;;;;;;4.75;4.75;;;;;;;;5055667;28;45458;-70
2021/12/29 06:33:05;;;;;;;;;4.00;4.00;;;;;;;;5036406;28;45335;-69
2021/12/29 06:35:31;;;;;;;;;5.75;4.75;;;;;;;;5037038;28;45711;-69
2021/12/29 06:37:56;;;;;;;;;4.50;4.50;;;;;;;;5052243;28;45501;-70
2021/12/29 06:40:21;;;;;;;;;5.75;5.50;;;;;;;;5055076;28;45544;-70
2021/12/29 06:42:46;;;;;;;;;4.25;4.25;;;;;;;;5037531;28;45728;-70
2021/12/29 06:45:12;;;;;;;;;5.25;4.75;;;;;;;;5070350;28;45588;-67
2021/12/29 06:47:37;;;;;;;;;7.50;5.00;;;;;;;;5054322;28;45792;-67
2021/12/29 06:50:03;;;;;;;;;6.25;6.25;;;;;;;;5054580;28;45393;-69
2021/12/29 06:52:28;;;;;;;;;7.25;5.00;;;;;;;;5055123;28;45436;-68
2021/12/29 06:54:54;;;;;;;;;4.00;4.00;;;;;;;;5054875;28;45409;-68
2021/12/29 06:57:19;;;;;;;;;5.00;5.00;;;;;;;;5036662;28;47451;-67
2021/12/29 06:59:44;;;;;;;;;5.00;5.00;;;;;;;;5054448;28;45370;-70
2021/12/29 07:02:10;;;;;;;;;7.00;5.50;;;;;;;;5069633;28;45527;-69
2021/12/29 07:04:36;;;;;;;;;9.00;5.00;;;;;;;;5036395;28;45533;-70
2021/12/29 07:07:01;;;;;;;;;6.25;5.25;;;;;;;;5052488;28;45555;-71
2021/12/29 07:09:26;;;;;;;;;6.00;6.00;;;;;;;;5054216;28;45446;-70
2021/12/29 07:11:51;;;;;;;;;4.00;3.67;;;;;;;;5054415;28;45576;-70
2021/12/29 07:14:19;;;;;;;;;4.00;4.00;;;;;;;;5054509;28;45461;-70
2021/12/29 07:16:44;;;;;;;;;4.00;4.00;;;;;;;;5054193;28;45806;-71
2021/12/29 07:19:10;;;;;;;;;5.00;5.00;;;;;;;;5035922;28;45482;-71
2021/12/29 07:21:35;;;;;;;;;3.67;3.67;;;;;;;;5054383;28;45441;-69
2021/12/29 07:24:01;;;;;;;;;5.00;5.00;;;;;;;;5054228;28;45536;-70
2021/12/29 07:26:26;;;;;;;;;6.00;5.00;;;;;;;;5035786;28;47704;-69
2021/12/29 07:28:52;;;;;;;;;6.00;6.00;;;;;;;;5054129;28;45629;-69
2021/12/29 07:31:18;;;;;;;;;8.00;5.50;;;;;;;;5053379;28;45891;-70
2021/12/29 07:33:43;;;;;;;;;5.75;4.75;;;;;;;;5048730;28;45645;-70
2021/12/29 07:36:08;;;;;;;;;4.00;4.00;;;;;;;;5035237;28;48481;-70
2021/12/29 07:38:34;;;;;;;;;4.00;4.00;;;;;;;;5053786;28;45412;-72
2021/12/29 07:40:59;;;;;;;;;4.75;3.00;;;;;;;;5054049;28;45412;-72
2021/12/29 07:43:24;;;;;;;;;5.00;5.00;;;;;;;;5053978;28;45387;-70
2021/12/29 07:45:50;;;;;;;;;5.33;3.67;;;;;;;;5054189;28;45685;-70
2021/12/29 07:48:18;;;;;;;;;4.00;4.00;;;;;;;;5053680;28;45506;-71
2021/12/29 07:50:43;;;;;;;;;5.25;4.25;;;;;;;;5053651;28;45402;-72
2021/12/29 07:53:08;;;;;;;;;3.67;3.67;;;;;;;;5053846;28;45366;-72
2021/12/29 07:55:33;;;;;;;;;3.67;3.67;;;;;;;;5053889;28;46727;-71
2021/12/29 07:57:59;;;;;;;;;6.50;6.50;;;;;;;;5035581;28;46405;-72
2021/12/29 08:00:25;;;;;;;;;5.00;5.00;;;;;;;;5036170;28;45424;-72
2021/12/29 08:02:51;;;;;;;;;5.75;5.00;;;;;;;;5069299;28;45376;-71
2021/12/29 08:05:16;;;;;;;;;4.00;4.00;;;;;;;;5035311;28;48556;-70
2021/12/29 08:07:41;;;;;;;;;4.75;4.75;;;;;;;;5053741;28;45330;-71
2021/12/29 08:10:06;;;;;;;;;5.00;5.00;;;;;;;;5035805;28;45466;-70
2021/12/29 08:12:32;;;;;;;;;3.67;3.00;;;;;;;;5054152;28;45398;-70
2021/12/29 08:14:58;;;;;;;;;3.33;3.33;;;;;;;;5035144;28;48529;-70
2021/12/29 08:17:23;;;;;;;;;5.00;5.00;;;;;;;;5053031;28;45489;-70
2021/12/29 08:19:50;;;;;;;;;5.75;4.75;;;;;;;;5051643;28;45453;-70
2021/12/29 08:22:15;;;;;;;;;4.00;4.00;;;;;;;;5053072;28;45485;-72
2021/12/29 08:24:40;;;;;;;;;7.33;5.00;;;;;;;;5053816;28;45722;-71
2021/12/29 08:27:06;;;;;;;;;4.50;4.50;;;;;;;;5035376;28;46049;-71
2021/12/29 08:29:31;;;;;;;;;3.75;3.75;;;;;;;;5053147;28;45511;-70
2021/12/29 08:31:57;;;;;;;;;4.00;4.00;;;;;;;;5053092;28;45452;-69
2021/12/29 08:34:23;;;;;;;;;6.00;4.50;;;;;;;;5035067;28;47302;-69
2021/12/29 08:36:49;;;;;;;;;5.33;4.67;;;;;;;;5053605;28;45425;-70
2021/12/29 08:39:14;;;;;;;;;4.75;4.25;;;;;;;;5035315;28;45494;-73
2021/12/29 08:41:39;;;;;;;;;6.00;6.00;;;;;;;;5034207;28;45519;-73
2021/12/29 08:44:05;;;;;;;;;3.50;3.00;;;;;;;;5052907;28;46443;-72
2021/12/29 08:46:31;;;;;;;;;5.50;4.50;;;;;;;;5037199;28;45286;-73
2021/12/29 08:48:56;;;;;;;;;4.75;4.75;;;;;;;;5054024;28;45513;-72
2021/12/29 08:51:21;;;;;;;;;3.67;3.67;;;;;;;;5053590;28;45401;-73
2021/12/29 08:53:47;;;;;;;;;5.50;4.50;;;;;;;;5052879;28;46628;-72
2021/12/29 08:56:14;;;;;;;;;5.00;4.00;;;;;;;;5034770;28;45721;-72
2021/12/29 08:58:40;;;;;;;;;6.50;4.75;;;;;;;;5052749;28;45400;-72
2021/12/29 09:01:05;;;;;;;;;3.75;3.75;;;;;;;;5052850;28;45423;-73
2021/12/29 09:03:33;;;;;;;;;5.00;5.00;;;;;;;;5035175;28;46580;-73
2021/12/29 09:06:02;;;;;;;;;4.00;3.67;;;;;;;;5034239;28;45367;-73
2021/12/29 09:08:31;;;;;;;;;1.33;1.33;;;;;;;;5052096;28;45842;-72
2021/12/29 09:10:57;;;;;;;;;2.00;2.00;;;;;;;;5033559;28;45518;-73
2021/12/29 09:13:23;;;;;;;;;1.00;1.00;;;;;;;;5033840;28;47843;-72
2021/12/29 09:15:49;;;;;;;;;1.33;1.33;;;;;;;;5035122;28;45485;-73
2021/12/29 09:18:15;;;;;;;;;2.33;2.33;;;;;;;;5052832;28;45588;-73
2021/12/29 09:20:45;;;;;;;;;3.33;3.33;;;;;;;;5052561;28;45382;-73
2021/12/29 09:23:11;;;;;;;;;2.67;2.67;;;;;;;;5052348;28;45706;-73
2021/12/29 09:25:38;;;;;;;;;4.00;2.67;;;;;;;;5052366;28;45761;-73
2021/12/29 09:28:03;;;;;;;;;3.00;1.33;;;;;;;;5051488;28;47981;-73
2021/12/29 09:30:31;;;;;;;;;2.33;2.33;;;;;;;;5052536;28;45432;-73
2021/12/29 09:32:57;;;;;;;;;1.33;1.33;;;;;;;;5032518;28;48958;-70
2021/12/29 09:35:22;;;;;;;;;4.00;3.00;;;;;;;;5050410;28;45812;-71
2021/12/29 09:37:49;;;;;;;;;5.00;3.67;;;;;;;;5032800;28;45509;-71
2021/12/29 09:40:15;;;;;;;;;5.00;5.00;;;;;;;;5049993;28;45600;-73
2021/12/29 09:42:40;;;;;;;;;2.00;2.00;;;;;;;;5013915;28;48942;-72
2021/12/29 09:45:07;;;;;;;;;2.00;1.00;;;;;;;;5033427;28;46153;-72
2021/12/29 09:47:32;;;;;;;;;2.33;1.67;;;;;;;;5052040;28;45420;-72
2021/12/29 09:49:57;;;;;;;;;1.00;1.00;;;;;;;;5052151;28;45501;-71
2021/12/29 09:52:23;;;;;;;;;1.00;1.00;;;;;;;;5034222;28;47365;-72
2021/12/29 09:54:48;;;;;;;;;2.00;2.00;;;;;;;;5051741;28;45448;-70
2021/12/29 09:57:13;;;;;;;;;2.00;2.00;;;;;;;;5050032;28;45445;-72
2021/12/29 09:59:39;;;;;;;;;4.33;3.33;;;;;;;;5051797;28;45374;-72
2021/12/29 10:02:05;;;;;;;;;1.33;0.00;;;;;;;;5036321;28;48447;-73
2021/12/29 10:04:34;;;;;;;;;1.00;1.00;;;;;;;;5036440;28;45676;-73
2021/12/29 10:07:09;;;;;;;;;2.00;2.00;;;;;;;;5036581;28;45451;-73
2021/12/29 10:09:35;;;;;;;;;2.67;2.67;;;;;;;;5053624;28;45585;-71
2021/12/29 10:12:05;;;;;;;;;2.00;1.00;;;;;;;;5055146;28;45587;-73
2021/12/29 10:14:38;;;;;;;;;1.00;1.00;;;;;;;;5055201;28;45654;-72
2021/12/29 10:17:10;;;;;;;;;1.00;1.00;;;;;;;;5054529;28;45452;-73
2021/12/29 10:19:37;;;;;;;;;3.00;2.00;;;;;;;;5036868;28;45778;-72
2021/12/29 10:22:02;;;;;;;;;1.00;1.00;;;;;;;;5053310;28;45638;-70
2021/12/29 10:24:27;;;;;;;;;3.00;2.00;;;;;;;;5054878;28;45429;-69
2021/12/29 10:26:55;;;;;;;;;0.67;0.00;;;;;;;;5054202;28;45351;-70
2021/12/29 10:29:20;;;;;;;;;1.33;1.33;;;;;;;;5035963;28;45432;-71
2021/12/29 10:31:47;;;;;;;;;2.67;1.33;;;;;;;;5054913;28;45567;-71
2021/12/29 10:34:14;;;;;;;;;1.00;1.00;;;;;;;;5052612;28;45596;-72
2021/12/29 10:36:42;;;;;;;;;1.00;1.00;;;;;;;;5047421;28;45711;-72
2021/12/29 10:39:14;;;;;;;;;2.67;2.67;;;;;;;;5053394;28;45334;-72
2021/12/29 10:42:01;;;;;;;;;1.00;1.00;;;;;;;;5033988;28;48324;-72
2021/12/29 10:44:27;;;;;;;;;0.00;0.00;;;;;;;;5030235;28;46379;-72
2021/12/29 10:46:55;;;;;;;;;1.67;1.00;;;;;;;;5049397;28;45432;-71
2021/12/29 10:49:21;;;;;;;;;2.00;1.00;;;;;;;;5048347;28;45377;-70
2021/12/29 10:51:47;;;;;;;;;0.00;0.00;;;;;;;;5037020;28;47545;-72
2021/12/29 10:54:14;;;;;;;;;1.00;1.00;;;;;;;;5045377;28;45547;-73
2021/12/29 10:56:41;;;;;;;;;2.00;1.33;;;;;;;;5054009;28;45563;-73
2021/12/29 10:59:18;;;;;;;;;1.00;1.00;;;;;;;;5052706;28;45524;-71
2021/12/29 11:01:43;;;;;;;;;1.33;1.33;;;;;;;;5054092;28;46609;-70
2021/12/29 11:04:11;;;;;;;;;1.00;1.00;;;;;;;;5044275;28;45628;-70
2021/12/29 11:06:39;;;;;;;;;1.00;1.00;;;;;;;;5042836;28;45488;-72
2021/12/29 11:09:04;;;;;;;;;0.00;0.00;;;;;;;;5051532;28;45568;-72
2021/12/29 11:11:35;;;;;;;;;0.00;0.00;;;;;;;;5027790;28;48515;-72
2021/12/29 11:14:07;;;;;;;;;1.00;1.00;;;;;;;;5035599;28;46093;-74
2021/12/29 11:16:32;;;;;;;;;1.00;1.00;;;;;;;;5059600;28;45505;-71
2021/12/29 11:18:57;;;;;;;;;0.00;0.00;;;;;;;;5047010;28;45318;-72
2021/12/29 11:21:25;;;;;;;;;0.67;0.67;;;;;;;;5050286;28;46242;-73
2021/12/29 11:23:50;;;;;;;;;0.67;0.67;;;;;;;;5048798;28;45593;-72
2021/12/29 11:26:15;;;;;;;;;0.00;0.00;;;;;;;;5034858;28;45447;-72
2021/12/29 11:28:40;;;;;;;;;1.00;0.00;;;;;;;;5034487;28;45575;-70
2021/12/29 11:31:08;;;;;;;;;0.00;0.00;;;;;;;;5052149;28;45957;-69
2021/12/29 11:33:34;;;;;;;;;0.67;0.00;;;;;;;;5045842;28;45488;-71
2021/12/29 11:36:00;;;;;;;;;0.00;0.00;;;;;;;;5031574;28;45551;-72
2021/12/29 11:38:26;;;;;;;;;0.00;0.00;;;;;;;;5033245;28;45591;-72
2021/12/29 11:40:53;;;;;;;;;0.00;0.00;;;;;;;;5053700;28;45371;-70
2021/12/29 11:43:19;;;;;;;;;9.33;9.33;;;;;;;;5043986;28;45429;-70
2021/12/29 11:45:46;;;;;;;;;10.33;8.67;;;;;;;;5043387;28;45357;-71
2021/12/29 11:48:12;;;;;;;;;3.00;2.00;;;;;;;;5050722;28;45895;-71
2021/12/29 11:50:40;;;;;;;;;4.00;3.00;;;;;;;;5035060;28;46559;-70
2021/12/29 11:53:09;;;;;;;;;5.00;5.00;;;;;;;;5034730;28;45690;-70
2021/12/29 11:55:39;;;;;;;;;2.00;2.00;;;;;;;;5030685;28;46279;-70
2021/12/29 11:58:09;;;;;;;;;8.33;5.67;;;;;;;;5052716;28;45389;-70
2021/12/29 12:00:34;;;;;;;;;2.00;2.00;;;;;;;;5053241;28;45758;-69
2021/12/29 12:03:26;;;;;;;;;5.00;3.67;;;;;;;;5053239;28;45761;-70
2021/12/29 12:05:51;;;;;;;;;1.00;1.00;;;;;;;;5049595;28;45520;-70
2021/12/29 12:08:22;;;;;;;;;0.00;0.00;;;;;;;;5053083;28;45587;-69
2021/12/29 12:10:48;;;;;;;;;1.33;1.00;;;;;;;;5030230;28;47732;-64
2021/12/29 12:13:27;;;;;;;;;2.00;2.00;;;;;;;;5031981;28;45550;-67
2021/12/29 12:16:12;;;;;;;;;1.00;1.00;;;;;;;;5052366;28;45384;-64
2021/12/29 12:18:51;;;;;;;;;1.33;1.33;;;;;;;;5050021;28;45609;-70
2021/12/29 12:21:19;;;;;;;;;4.00;2.33;;;;;;;;5035231;28;50282;-68
2021/12/29 12:23:45;;;;;;;;;2.00;1.00;;;;;;;;5051764;28;45535;-67
2021/12/29 12:26:10;;;;;;;;;1.67;1.00;;;;;;;;5047841;28;45385;-71
2021/12/29 12:28:44;;;;;;;;;0.00;0.00;;;;;;;;5052532;28;47699;-68
2021/12/29 12:31:22;;;;;;;;;1.00;1.00;;;;;;;;5067217;27;48537;-67
2021/12/29 12:33:47;;;;;;;;;1.00;1.00;;;;;;;;5033857;28;45723;-69
2021/12/29 12:36:12;;;;;;;;;0.00;0.00;;;;;;;;5050477;28;45702;-68
2021/12/29 12:38:38;;;;;;;;;1.00;1.00;;;;;;;;5032679;28;45426;-68
2021/12/29 12:41:12;;;;;;;;;3.00;3.00;;;;;;;;5051034;28;46432;-67
2021/12/29 12:43:50;;;;;;;;;1.33;1.00;;;;;;;;5050058;28;45497;-68
2021/12/29 12:46:26;;;;;;;;;3.00;3.00;;;;;;;;5063775;28;45528;-67
2021/12/29 12:48:52;;;;;;;;;2.67;2.67;;;;;;;;5033925;28;45873;-69
2021/12/29 12:51:18;;;;;;;;;0.00;0.00;;;;;;;;5034116;28;47615;-68
2021/12/29 12:53:43;;;;;;;;;1.67;1.00;;;;;;;;5052550;28;45602;-70
2021/12/29 12:56:16;;;;;;;;;0.00;0.00;;;;;;;;5042760;28;45760;-68
2021/12/29 12:58:43;;;;;;;;;1.00;1.00;;;;;;;;5038087;28;45592;-68
2021/12/29 13:01:12;;;;;;;;;3.67;3.67;;;;;;;;5051526;28;45924;-69
2021/12/29 13:03:38;;;;;;;;;2.67;2.67;;;;;;;;5042590;28;46365;-70
2021/12/29 13:06:04;;;;;;;;;0.67;0.67;;;;;;;;5052762;28;45511;-69
2021/12/29 13:08:31;;;;;;;;;4.00;3.00;;;;;;;;5051115;28;45700;-68
2021/12/29 13:11:07;;;;;;;;;2.00;2.00;;;;;;;;5061552;27;45675;-68
2021/12/29 13:13:33;;;;;;;;;1.00;1.00;;;;;;;;5032763;28;45549;-69
2021/12/29 13:16:09;;;;;;;;;4.00;3.00;;;;;;;;5043444;28;45326;-66
2021/12/29 13:18:35;;;;;;;;;0.33;0.33;;;;;;;;5052679;28;45424;-68
2021/12/29 13:21:07;;;;;;;;;6.00;5.00;;;;;;;;5053021;28;45513;-68
2021/12/29 13:23:33;;;;;;;;;2.00;2.00;;;;;;;;5056533;28;46000;-68
2021/12/29 13:25:58;;;;;;;;;3.00;2.00;;;;;;;;5050313;28;45480;-68
2021/12/29 13:28:25;;;;;;;;;7.00;6.00;;;;;;;;5059288;28;45428;-68
2021/12/29 13:30:55;;;;;;;;;5.00;5.00;;;;;;;;5037148;28;48611;-67
2021/12/29 13:33:25;;;;;;;;;4.67;4.67;;;;;;;;5037562;28;45570;-68
2021/12/29 13:35:52;;;;;;;;;0.33;0.33;;;;;;;;5057712;28;46042;-68
2021/12/29 13:38:17;;;;;;;;;1.00;1.00;;;;;;;;5054153;28;45430;-68
2021/12/29 13:40:44;;;;;;;;;1.00;1.00;;;;;;;;5046809;28;48311;-68
2021/12/29 13:43:14;;;;;;;;;0.00;0.00;;;;;;;;5071977;27;46451;-69
2021/12/29 13:45:40;;;;;;;;;0.00;0.00;;;;;;;;5063910;28;45507;-69
2021/12/29 13:48:05;;;;;;;;;0.00;0.00;;;;;;;;5055474;28;45491;-67
2021/12/29 13:50:31;;;;;;;;;2.00;2.00;;;;;;;;5055079;28;46619;-69
2021/12/29 13:52:58;;;;;;;;;0.00;0.00;;;;;;;;5050386;28;45367;-69
2021/12/29 13:55:27;;;;;;;;;0.67;0.67;;;;;;;;5044369;28;45410;-68
2021/12/29 13:57:54;;;;;;;;;1.00;1.00;;;;;;;;5043235;28;45461;-69
2021/12/29 14:00:19;;;;;;;;;1.33;0.00;;;;;;;;5053311;28;45692;-66
2021/12/29 14:02:45;;;;;;;;;2.00;2.00;;;;;;;;5053811;28;45859;-69
2021/12/29 14:05:11;;;;;;;;;0.33;0.33;;;;;;;;5060449;28;45627;-69
2021/12/29 14:07:38;;;;;;;;;0.00;0.00;;;;;;;;5034696;28;45515;-68
2021/12/29 14:10:04;;;;;;;;;0.67;0.67;;;;;;;;5064239;28;45876;-69
2021/12/29 14:12:33;;;;;;;;;1.00;1.00;;;;;;;;5055154;28;45505;-70
2021/12/29 14:15:01;;;;;;;;;0.00;0.00;;;;;;;;5053596;28;45491;-67
2021/12/29 14:17:26;;;;;;;;;0.00;0.00;;;;;;;;5034594;28;45856;-69
2021/12/29 14:19:52;;;;;;;;;0.00;0.00;;;;;;;;5035159;28;47339;-71
2021/12/29 14:22:25;;;;;;;;;0.00;0.00;;;;;;;;5037967;28;46581;-69
2021/12/29 14:24:51;;;;;;;;;1.33;0.00;;;;;;;;5049916;28;46086;-69
2021/12/29 14:27:25;;;;;;;;;1.00;1.00;;;;;;;;5040323;28;45762;-70
2021/12/29 14:29:50;;;;;;;;;0.00;0.00;;;;;;;;5055262;28;46619;-70
2021/12/29 14:32:18;;;;;;;;;0.00;0.00;;;;;;;;5034934;28;45702;-68
2021/12/29 14:34:47;;;;;;;;;0.00;0.00;;;;;;;;5052894;28;45566;-69
2021/12/29 14:37:14;;;;;;;;;0.00;0.00;;;;;;;;5055543;28;45363;-70
2021/12/29 14:39:40;;;;;;;;;0.00;0.00;;;;;;;;5063029;28;45946;-69
2021/12/29 14:42:10;;;;;;;;;2.00;0.67;;;;;;;;5048325;28;45461;-69
2021/12/29 14:44:52;;;;;;;;;0.33;0.33;;;;;;;;5049222;28;45503;-69
2021/12/29 14:47:17;;;;;;;;;1.00;1.00;;;;;;;;5050976;28;45597;-69